sensor_id;sensor_type;location;lat;lon;timestamp;P1;durP1;ratioP1;P2;durP2;ratioP2
10293;SDS011;5192;50.328;7.610;2023-03-17T00:01:55;7.13;;;3.40;;
10293;SDS011;5192;50.328;7.610;2023-03-17T00:04:21;4.33;;;3.30;;
10293;SDS011;5192;50.328;7.610;2023-03-17T00:06:50;5.07;;;3.80;;
10293;SDS011;5192;50.328;7.610;2023-03-17T00:09:18;4.40;;;3.33;;
10293;SDS011;5192;50.328;7.610;2023-03-17T00:11:47;4.33;;;3.30;;
10293;SDS011;5192;50.328;7.610;2023-03-17T00:14:15;4.53;;;3.23;;
10293;SDS011;5192;50.328;7.610;2023-03-17T00:16:43;4.63;;;3.50;;
10293;SDS011;5192;50.328;7.610;2023-03-17T00:19:31;5.77;;;3.43;;
10293;SDS011;5192;50.328;7.610;2023-03-17T00:22:00;5.43;;;3.30;;
10293;SDS011;5192;50.328;7.610;2023-03-17T00:24:30;5.77;;;3.20;;
10293;SDS011;5192;50.328;7.610;2023-03-17T00:27:12;4.60;;;3.50;;
10293;SDS011;5192;50.328;7.610;2023-03-17T00:29:39;4.57;;;3.00;;
10293;SDS011;5192;50.328;7.610;2023-03-17T00:32:15;4.77;;;3.27;;
10293;SDS011;5192;50.328;7.610;2023-03-17T00:34:45;4.87;;;3.50;;
10293;SDS011;5192;50.328;7.610;2023-03-17T00:37:13;3.97;;;3.50;;
10293;SDS011;5192;50.328;7.610;2023-03-17T00:39:41;5.67;;;3.47;;
10293;SDS011;5192;50.328;7.610;2023-03-17T00:42:08;6.53;;;3.67;;
10293;SDS011;5192;50.328;7.610;2023-03-17T00:44:36;4.83;;;3.50;;
10293;SDS011;5192;50.328;7.610;2023-03-17T00:47:04;4.90;;;3.57;;
10293;SDS011;5192;50.328;7.610;2023-03-17T00:49:34;3.73;;;3.33;;
10293;SDS011;5192;50.328;7.610;2023-03-17T00:52:03;4.57;;;3.63;;
10293;SDS011;5192;50.328;7.610;2023-03-17T00:54:30;5.17;;;4.10;;
10293;SDS011;5192;50.328;7.610;2023-03-17T00:56:57;3.93;;;3.50;;
10293;SDS011;5192;50.328;7.610;2023-03-17T00:59:25;3.83;;;3.27;;
10293;SDS011;5192;50.328;7.610;2023-03-17T01:01:55;5.37;;;3.53;;
10293;SDS011;5192;50.328;7.610;2023-03-17T01:04:24;4.43;;;3.37;;
10293;SDS011;5192;50.328;7.610;2023-03-17T01:06:52;5.37;;;3.87;;
10293;SDS011;5192;50.328;7.610;2023-03-17T01:09:20;4.37;;;3.77;;
10293;SDS011;5192;50.328;7.610;2023-03-17T01:11:51;4.20;;;3.23;;
10293;SDS011;5192;50.328;7.610;2023-03-17T01:14:19;4.73;;;3.37;;
10293;SDS011;5192;50.328;7.610;2023-03-17T01:16:48;4.70;;;3.97;;
10293;SDS011;5192;50.328;7.610;2023-03-17T01:19:19;4.33;;;3.37;;
10293;SDS011;5192;50.328;7.610;2023-03-17T01:21:47;4.50;;;3.70;;
10293;SDS011;5192;50.328;7.610;2023-03-17T01:24:14;4.17;;;3.33;;
10293;SDS011;5192;50.328;7.610;2023-03-17T01:26:41;4.50;;;3.53;;
10293;SDS011;5192;50.328;7.610;2023-03-17T01:29:08;5.30;;;3.43;;
10293;SDS011;5192;50.328;7.610;2023-03-17T01:31:36;4.53;;;3.50;;
10293;SDS011;5192;50.328;7.610;2023-03-17T01:34:03;5.67;;;3.53;;
10293;SDS011;5192;50.328;7.610;2023-03-17T01:36:31;5.47;;;3.60;;
10293;SDS011;5192;50.328;7.610;2023-03-17T01:39:00;4.27;;;3.47;;
10293;SDS011;5192;50.328;7.610;2023-03-17T01:41:35;4.27;;;3.50;;
10293;SDS011;5192;50.328;7.610;2023-03-17T01:44:03;5.67;;;3.53;;
10293;SDS011;5192;50.328;7.610;2023-03-17T01:46:29;4.23;;;3.50;;
10293;SDS011;5192;50.328;7.610;2023-03-17T01:49:11;4.80;;;3.93;;
10293;SDS011;5192;50.328;7.610;2023-03-17T01:52:25;4.07;;;3.67;;
10293;SDS011;5192;50.328;7.610;2023-03-17T02:00:17;4.60;;;3.73;;
10293;SDS011;5192;50.328;7.610;2023-03-17T02:02:47;4.63;;;3.60;;
10293;SDS011;5192;50.328;7.610;2023-03-17T02:05:16;4.53;;;3.50;;
10293;SDS011;5192;50.328;7.610;2023-03-17T02:07:46;5.70;;;3.80;;
10293;SDS011;5192;50.328;7.610;2023-03-17T02:10:16;5.20;;;3.70;;
10293;SDS011;5192;50.328;7.610;2023-03-17T02:12:45;5.77;;;3.53;;
10293;SDS011;5192;50.328;7.610;2023-03-17T02:15:16;6.17;;;3.77;;
10293;SDS011;5192;50.328;7.610;2023-03-17T02:17:44;5.70;;;3.63;;
10293;SDS011;5192;50.328;7.610;2023-03-17T02:22:52;4.83;;;3.53;;
10293;SDS011;5192;50.328;7.610;2023-03-17T02:25:22;4.30;;;3.60;;
10293;SDS011;5192;50.328;7.610;2023-03-17T02:27:55;4.83;;;3.23;;
10293;SDS011;5192;50.328;7.610;2023-03-17T02:30:30;6.63;;;3.63;;
10293;SDS011;5192;50.328;7.610;2023-03-17T02:32:59;5.97;;;3.60;;
10293;SDS011;5192;50.328;7.610;2023-03-17T02:35:28;3.87;;;3.47;;
10293;SDS011;5192;50.328;7.610;2023-03-17T02:37:57;5.17;;;4.03;;
10293;SDS011;5192;50.328;7.610;2023-03-17T02:40:25;4.80;;;3.83;;
10293;SDS011;5192;50.328;7.610;2023-03-17T02:42:52;5.93;;;3.57;;
10293;SDS011;5192;50.328;7.610;2023-03-17T02:45:18;4.60;;;3.33;;
10293;SDS011;5192;50.328;7.610;2023-03-17T02:47:45;5.80;;;4.37;;
10293;SDS011;5192;50.328;7.610;2023-03-17T02:50:22;3.90;;;3.47;;
10293;SDS011;5192;50.328;7.610;2023-03-17T02:52:54;4.47;;;3.67;;
10293;SDS011;5192;50.328;7.610;2023-03-17T02:55:20;5.40;;;3.70;;
10293;SDS011;5192;50.328;7.610;2023-03-17T02:57:46;6.17;;;3.87;;
10293;SDS011;5192;50.328;7.610;2023-03-17T03:00:14;5.37;;;3.43;;
10293;SDS011;5192;50.328;7.610;2023-03-17T03:02:41;4.23;;;3.53;;
10293;SDS011;5192;50.328;7.610;2023-03-17T03:05:09;5.00;;;3.53;;
10293;SDS011;5192;50.328;7.610;2023-03-17T03:07:36;5.33;;;3.50;;
10293;SDS011;5192;50.328;7.610;2023-03-17T03:10:04;4.77;;;3.90;;
10293;SDS011;5192;50.328;7.610;2023-03-17T03:12:32;4.20;;;3.53;;
10293;SDS011;5192;50.328;7.610;2023-03-17T03:15:00;3.87;;;3.37;;
10293;SDS011;5192;50.328;7.610;2023-03-17T03:17:28;4.73;;;3.80;;
10293;SDS011;5192;50.328;7.610;2023-03-17T03:19:55;4.93;;;3.83;;
10293;SDS011;5192;50.328;7.610;2023-03-17T03:22:22;5.73;;;3.67;;
10293;SDS011;5192;50.328;7.610;2023-03-17T03:24:49;4.43;;;4.03;;
10293;SDS011;5192;50.328;7.610;2023-03-17T03:27:15;5.83;;;3.50;;
10293;SDS011;5192;50.328;7.610;2023-03-17T03:29:43;5.07;;;3.90;;
10293;SDS011;5192;50.328;7.610;2023-03-17T03:32:11;4.83;;;3.80;;
10293;SDS011;5192;50.328;7.610;2023-03-17T03:34:37;4.50;;;4.10;;
10293;SDS011;5192;50.328;7.610;2023-03-17T03:37:04;5.83;;;4.20;;
10293;SDS011;5192;50.328;7.610;2023-03-17T03:39:32;4.90;;;3.60;;
10293;SDS011;5192;50.328;7.610;2023-03-17T03:42:01;4.03;;;3.63;;
10293;SDS011;5192;50.328;7.610;2023-03-17T03:44:27;4.10;;;3.53;;
10293;SDS011;5192;50.328;7.610;2023-03-17T03:46:56;5.60;;;3.47;;
10293;SDS011;5192;50.328;7.610;2023-03-17T03:49:22;5.80;;;4.13;;
10293;SDS011;5192;50.328;7.610;2023-03-17T03:51:49;5.10;;;3.53;;
10293;SDS011;5192;50.328;7.610;2023-03-17T03:54:17;5.17;;;4.03;;
10293;SDS011;5192;50.328;7.610;2023-03-17T03:56:44;4.77;;;3.63;;
10293;SDS011;5192;50.328;7.610;2023-03-17T03:59:11;6.90;;;4.00;;
10293;SDS011;5192;50.328;7.610;2023-03-17T04:01:38;5.47;;;3.70;;
10293;SDS011;5192;50.328;7.610;2023-03-17T04:04:05;5.07;;;3.90;;
10293;SDS011;5192;50.328;7.610;2023-03-17T04:06:33;5.43;;;4.23;;
10293;SDS011;5192;50.328;7.610;2023-03-17T04:09:01;5.40;;;3.83;;
10293;SDS011;5192;50.328;7.610;2023-03-17T04:11:28;4.60;;;3.97;;
10293;SDS011;5192;50.328;7.610;2023-03-17T04:13:55;7.40;;;4.00;;
10293;SDS011;5192;50.328;7.610;2023-03-17T04:16:22;4.13;;;3.73;;
10293;SDS011;5192;50.328;7.610;2023-03-17T04:18:48;4.57;;;3.87;;
10293;SDS011;5192;50.328;7.610;2023-03-17T04:21:15;4.10;;;3.63;;
10293;SDS011;5192;50.328;7.610;2023-03-17T04:23:45;4.30;;;3.90;;
10293;SDS011;5192;50.328;7.610;2023-03-17T04:26:12;7.17;;;4.00;;
10293;SDS011;5192;50.328;7.610;2023-03-17T04:28:43;4.17;;;3.13;;
10293;SDS011;5192;50.328;7.610;2023-03-17T04:31:12;7.20;;;4.23;;
10293;SDS011;5192;50.328;7.610;2023-03-17T04:33:40;4.33;;;3.83;;
10293;SDS011;5192;50.328;7.610;2023-03-17T04:36:08;7.07;;;4.20;;
10293;SDS011;5192;50.328;7.610;2023-03-17T04:38:50;3.93;;;3.50;;
10293;SDS011;5192;50.328;7.610;2023-03-17T04:41:17;5.97;;;4.17;;
10293;SDS011;5192;50.328;7.610;2023-03-17T04:43:45;4.70;;;3.73;;
10293;SDS011;5192;50.328;7.610;2023-03-17T04:46:11;5.57;;;4.10;;
10293;SDS011;5192;50.328;7.610;2023-03-17T04:48:38;4.33;;;3.90;;
10293;SDS011;5192;50.328;7.610;2023-03-17T04:51:06;5.50;;;4.07;;
10293;SDS011;5192;50.328;7.610;2023-03-17T04:53:34;6.20;;;4.90;;
10293;SDS011;5192;50.328;7.610;2023-03-17T04:56:01;5.87;;;4.17;;
10293;SDS011;5192;50.328;7.610;2023-03-17T04:58:29;4.77;;;3.77;;
10293;SDS011;5192;50.328;7.610;2023-03-17T05:00:55;4.60;;;4.10;;
10293;SDS011;5192;50.328;7.610;2023-03-17T05:03:25;5.30;;;4.37;;
10293;SDS011;5192;50.328;7.610;2023-03-17T05:05:53;5.90;;;3.87;;
10293;SDS011;5192;50.328;7.610;2023-03-17T05:08:22;6.37;;;4.23;;
10293;SDS011;5192;50.328;7.610;2023-03-17T05:10:49;5.20;;;4.27;;
10293;SDS011;5192;50.328;7.610;2023-03-17T05:13:18;5.07;;;3.97;;
10293;SDS011;5192;50.328;7.610;2023-03-17T05:15:45;5.47;;;4.03;;
10293;SDS011;5192;50.328;7.610;2023-03-17T05:18:14;6.63;;;4.20;;
10293;SDS011;5192;50.328;7.610;2023-03-17T05:20:43;7.87;;;4.93;;
10293;SDS011;5192;50.328;7.610;2023-03-17T05:23:13;5.27;;;4.17;;
10293;SDS011;5192;50.328;7.610;2023-03-17T05:25:39;4.73;;;4.17;;
10293;SDS011;5192;50.328;7.610;2023-03-17T05:28:07;6.57;;;4.10;;
10293;SDS011;5192;50.328;7.610;2023-03-17T05:30:34;6.50;;;4.00;;
10293;SDS011;5192;50.328;7.610;2023-03-17T05:33:03;5.23;;;4.03;;
10293;SDS011;5192;50.328;7.610;2023-03-17T05:35:30;5.80;;;4.33;;
10293;SDS011;5192;50.328;7.610;2023-03-17T05:37:57;5.13;;;4.17;;
10293;SDS011;5192;50.328;7.610;2023-03-17T05:40:24;6.13;;;4.10;;
10293;SDS011;5192;50.328;7.610;2023-03-17T05:42:52;4.93;;;4.10;;
10293;SDS011;5192;50.328;7.610;2023-03-17T05:45:18;4.33;;;3.80;;
10293;SDS011;5192;50.328;7.610;2023-03-17T05:47:46;4.83;;;3.93;;
10293;SDS011;5192;50.328;7.610;2023-03-17T05:50:13;5.37;;;4.13;;
10293;SDS011;5192;50.328;7.610;2023-03-17T05:52:39;5.43;;;3.97;;
10293;SDS011;5192;50.328;7.610;2023-03-17T05:55:07;4.80;;;3.80;;
10293;SDS011;5192;50.328;7.610;2023-03-17T05:57:34;9.07;;;4.07;;
10293;SDS011;5192;50.328;7.610;2023-03-17T06:00:02;5.33;;;4.13;;
10293;SDS011;5192;50.328;7.610;2023-03-17T06:02:31;5.23;;;4.00;;
10293;SDS011;5192;50.328;7.610;2023-03-17T06:04:59;5.17;;;3.90;;
10293;SDS011;5192;50.328;7.610;2023-03-17T06:07:28;5.67;;;4.10;;
10293;SDS011;5192;50.328;7.610;2023-03-17T06:09:54;5.83;;;4.40;;
10293;SDS011;5192;50.328;7.610;2023-03-17T06:12:21;4.37;;;3.97;;
10293;SDS011;5192;50.328;7.610;2023-03-17T06:14:47;4.27;;;3.80;;
10293;SDS011;5192;50.328;7.610;2023-03-17T06:17:17;6.83;;;4.67;;
10293;SDS011;5192;50.328;7.610;2023-03-17T06:19:45;7.63;;;4.60;;
10293;SDS011;5192;50.328;7.610;2023-03-17T06:22:11;6.30;;;4.23;;
10293;SDS011;5192;50.328;7.610;2023-03-17T06:24:37;6.20;;;4.40;;
10293;SDS011;5192;50.328;7.610;2023-03-17T06:27:05;4.50;;;4.07;;
10293;SDS011;5192;50.328;7.610;2023-03-17T06:29:32;5.67;;;4.00;;
10293;SDS011;5192;50.328;7.610;2023-03-17T06:32:00;4.83;;;3.80;;
10293;SDS011;5192;50.328;7.610;2023-03-17T06:34:26;5.63;;;4.50;;
10293;SDS011;5192;50.328;7.610;2023-03-17T06:36:54;6.20;;;4.30;;
10293;SDS011;5192;50.328;7.610;2023-03-17T06:39:20;5.67;;;4.17;;
10293;SDS011;5192;50.328;7.610;2023-03-17T06:41:49;4.53;;;3.90;;
10293;SDS011;5192;50.328;7.610;2023-03-17T06:44:15;5.20;;;4.20;;
10293;SDS011;5192;50.328;7.610;2023-03-17T06:46:43;6.03;;;4.27;;
10293;SDS011;5192;50.328;7.610;2023-03-17T06:49:08;5.07;;;4.10;;
10293;SDS011;5192;50.328;7.610;2023-03-17T06:51:39;5.60;;;4.13;;
10293;SDS011;5192;50.328;7.610;2023-03-17T06:54:05;6.50;;;4.17;;
10293;SDS011;5192;50.328;7.610;2023-03-17T06:56:33;6.73;;;3.67;;
10293;SDS011;5192;50.328;7.610;2023-03-17T06:59:01;4.57;;;4.17;;
10293;SDS011;5192;50.328;7.610;2023-03-17T07:01:29;5.00;;;4.20;;
10293;SDS011;5192;50.328;7.610;2023-03-17T07:03:57;4.50;;;3.67;;
10293;SDS011;5192;50.328;7.610;2023-03-17T07:06:26;4.50;;;4.10;;
10293;SDS011;5192;50.328;7.610;2023-03-17T07:08:55;5.10;;;3.87;;
10293;SDS011;5192;50.328;7.610;2023-03-17T07:11:23;7.77;;;3.93;;
10293;SDS011;5192;50.328;7.610;2023-03-17T07:13:52;4.73;;;3.83;;
10293;SDS011;5192;50.328;7.610;2023-03-17T07:16:20;5.50;;;4.23;;
10293;SDS011;5192;50.328;7.610;2023-03-17T07:18:47;4.67;;;3.70;;
10293;SDS011;5192;50.328;7.610;2023-03-17T07:21:15;4.63;;;3.60;;
10293;SDS011;5192;50.328;7.610;2023-03-17T07:23:41;6.00;;;4.00;;
10293;SDS011;5192;50.328;7.610;2023-03-17T07:26:09;5.03;;;3.93;;
10293;SDS011;5192;50.328;7.610;2023-03-17T07:28:37;4.40;;;3.93;;
10293;SDS011;5192;50.328;7.610;2023-03-17T07:31:04;4.93;;;4.20;;
10293;SDS011;5192;50.328;7.610;2023-03-17T07:33:51;4.33;;;3.60;;
10293;SDS011;5192;50.328;7.610;2023-03-17T07:36:19;4.63;;;3.57;;
10293;SDS011;5192;50.328;7.610;2023-03-17T07:38:46;4.67;;;3.80;;
10293;SDS011;5192;50.328;7.610;2023-03-17T07:41:13;5.03;;;3.80;;
10293;SDS011;5192;50.328;7.610;2023-03-17T07:43:42;5.77;;;3.80;;
10293;SDS011;5192;50.328;7.610;2023-03-17T07:46:09;5.37;;;3.27;;
10293;SDS011;5192;50.328;7.610;2023-03-17T07:48:34;5.83;;;4.17;;
10293;SDS011;5192;50.328;7.610;2023-03-17T07:51:14;4.57;;;3.40;;
10293;SDS011;5192;50.328;7.610;2023-03-17T07:53:46;4.60;;;3.53;;
10293;SDS011;5192;50.328;7.610;2023-03-17T07:56:17;5.10;;;4.03;;
10293;SDS011;5192;50.328;7.610;2023-03-17T07:58:42;3.87;;;3.43;;
10293;SDS011;5192;50.328;7.610;2023-03-17T08:01:09;3.70;;;3.37;;
10293;SDS011;5192;50.328;7.610;2023-03-17T08:03:36;4.73;;;3.70;;
10293;SDS011;5192;50.328;7.610;2023-03-17T08:06:02;5.53;;;3.60;;
10293;SDS011;5192;50.328;7.610;2023-03-17T08:08:32;4.30;;;3.63;;
10293;SDS011;5192;50.328;7.610;2023-03-17T08:11:00;4.87;;;3.67;;
10293;SDS011;5192;50.328;7.610;2023-03-17T08:13:33;4.97;;;3.60;;
10293;SDS011;5192;50.328;7.610;2023-03-17T08:16:00;3.93;;;3.40;;
10293;SDS011;5192;50.328;7.610;2023-03-17T08:18:29;4.70;;;3.60;;
10293;SDS011;5192;50.328;7.610;2023-03-17T08:20:56;4.33;;;3.67;;
10293;SDS011;5192;50.328;7.610;2023-03-17T08:23:24;4.67;;;3.23;;
10293;SDS011;5192;50.328;7.610;2023-03-17T08:25:56;4.63;;;3.20;;
10293;SDS011;5192;50.328;7.610;2023-03-17T08:28:34;4.63;;;3.40;;
10293;SDS011;5192;50.328;7.610;2023-03-17T08:31:11;7.00;;;3.40;;
10293;SDS011;5192;50.328;7.610;2023-03-17T08:33:40;4.07;;;3.50;;
10293;SDS011;5192;50.328;7.610;2023-03-17T08:36:26;4.53;;;3.30;;
10293;SDS011;5192;50.328;7.610;2023-03-17T08:38:52;6.37;;;3.43;;
10293;SDS011;5192;50.328;7.610;2023-03-17T08:41:21;4.80;;;3.07;;
10293;SDS011;5192;50.328;7.610;2023-03-17T08:43:53;4.33;;;3.27;;
10293;SDS011;5192;50.328;7.610;2023-03-17T08:46:23;4.00;;;3.17;;
10293;SDS011;5192;50.328;7.610;2023-03-17T08:48:58;4.67;;;3.20;;
10293;SDS011;5192;50.328;7.610;2023-03-17T08:51:26;4.03;;;2.90;;
10293;SDS011;5192;50.328;7.610;2023-03-17T08:53:55;5.13;;;3.40;;
10293;SDS011;5192;50.328;7.610;2023-03-17T08:56:25;4.60;;;3.53;;
10293;SDS011;5192;50.328;7.610;2023-03-17T08:58:52;3.10;;;2.80;;
10293;SDS011;5192;50.328;7.610;2023-03-17T09:01:19;4.57;;;3.43;;
10293;SDS011;5192;50.328;7.610;2023-03-17T09:03:46;3.73;;;3.17;;
10293;SDS011;5192;50.328;7.610;2023-03-17T09:06:13;3.67;;;3.00;;
10293;SDS011;5192;50.328;7.610;2023-03-17T09:08:41;3.80;;;3.00;;
10293;SDS011;5192;50.328;7.610;2023-03-17T09:11:15;5.63;;;3.10;;
10293;SDS011;5192;50.328;7.610;2023-03-17T09:13:44;6.37;;;3.43;;
10293;SDS011;5192;50.328;7.610;2023-03-17T09:16:12;5.27;;;3.50;;
10293;SDS011;5192;50.328;7.610;2023-03-17T09:18:40;4.00;;;2.90;;
10293;SDS011;5192;50.328;7.610;2023-03-17T09:21:09;3.93;;;3.30;;
10293;SDS011;5192;50.328;7.610;2023-03-17T09:23:41;4.93;;;3.17;;
10293;SDS011;5192;50.328;7.610;2023-03-17T09:26:07;3.57;;;2.90;;
10293;SDS011;5192;50.328;7.610;2023-03-17T09:28:36;3.20;;;2.90;;
10293;SDS011;5192;50.328;7.610;2023-03-17T09:31:03;3.37;;;2.70;;
10293;SDS011;5192;50.328;7.610;2023-03-17T09:33:38;3.93;;;3.13;;
10293;SDS011;5192;50.328;7.610;2023-03-17T09:36:07;6.00;;;3.37;;
10293;SDS011;5192;50.328;7.610;2023-03-17T09:38:35;4.77;;;3.40;;
10293;SDS011;5192;50.328;7.610;2023-03-17T09:41:28;4.20;;;3.20;;
10293;SDS011;5192;50.328;7.610;2023-03-17T09:56:36;4.43;;;2.97;;
10293;SDS011;5192;50.328;7.610;2023-03-17T10:02:00;2.80;;;2.43;;
10293;SDS011;5192;50.328;7.610;2023-03-17T10:04:26;4.40;;;2.60;;
10293;SDS011;5192;50.328;7.610;2023-03-17T10:06:56;3.53;;;2.60;;
10293;SDS011;5192;50.328;7.610;2023-03-17T10:09:39;4.77;;;2.67;;
10293;SDS011;5192;50.328;7.610;2023-03-17T10:12:19;3.83;;;2.80;;
10293;SDS011;5192;50.328;7.610;2023-03-17T10:15:29;4.37;;;2.60;;
10293;SDS011;5192;50.328;7.610;2023-03-17T10:18:17;4.63;;;2.63;;
10293;SDS011;5192;50.328;7.610;2023-03-17T10:20:51;3.23;;;2.67;;
10293;SDS011;5192;50.328;7.610;2023-03-17T10:23:26;4.13;;;2.20;;
10293;SDS011;5192;50.328;7.610;2023-03-17T10:29:04;2.77;;;2.23;;
10293;SDS011;5192;50.328;7.610;2023-03-17T10:31:39;4.87;;;2.30;;
10293;SDS011;5192;50.328;7.610;2023-03-17T10:39:47;2.57;;;2.30;;
10293;SDS011;5192;50.328;7.610;2023-03-17T10:42:26;3.87;;;2.20;;
10293;SDS011;5192;50.328;7.610;2023-03-17T10:45:15;3.77;;;2.40;;
10293;SDS011;5192;50.328;7.610;2023-03-17T10:47:51;5.53;;;2.50;;
10293;SDS011;5192;50.328;7.610;2023-03-17T10:50:31;3.07;;;2.00;;
10293;SDS011;5192;50.328;7.610;2023-03-17T10:55:33;2.63;;;2.30;;
10293;SDS011;5192;50.328;7.610;2023-03-17T10:58:12;3.00;;;2.40;;
10293;SDS011;5192;50.328;7.610;2023-03-17T11:04:18;4.17;;;2.20;;
10293;SDS011;5192;50.328;7.610;2023-03-17T11:06:53;5.60;;;2.57;;
10293;SDS011;5192;50.328;7.610;2023-03-17T11:09:21;5.97;;;2.00;;
10293;SDS011;5192;50.328;7.610;2023-03-17T11:12:05;3.47;;;2.50;;
10293;SDS011;5192;50.328;7.610;2023-03-17T11:14:43;4.33;;;2.33;;
10293;SDS011;5192;50.328;7.610;2023-03-17T11:17:19;2.83;;;2.13;;
10293;SDS011;5192;50.328;7.610;2023-03-17T11:20:41;2.67;;;1.90;;
10293;SDS011;5192;50.328;7.610;2023-03-17T11:23:22;2.87;;;2.10;;
10293;SDS011;5192;50.328;7.610;2023-03-17T11:26:15;4.13;;;2.20;;
10293;SDS011;5192;50.328;7.610;2023-03-17T11:29:08;3.13;;;2.03;;
10293;SDS011;5192;50.328;7.610;2023-03-17T11:32:27;4.90;;;2.43;;
10293;SDS011;5192;50.328;7.610;2023-03-17T11:43:32;3.07;;;1.87;;
10293;SDS011;5192;50.328;7.610;2023-03-17T11:46:42;3.87;;;2.07;;
10293;SDS011;5192;50.328;7.610;2023-03-17T11:49:38;2.60;;;1.70;;
10293;SDS011;5192;50.328;7.610;2023-03-17T11:52:22;2.00;;;1.60;;
10293;SDS011;5192;50.328;7.610;2023-03-17T11:55:22;3.23;;;1.77;;
10293;SDS011;5192;50.328;7.610;2023-03-17T11:58:36;2.97;;;1.87;;
10293;SDS011;5192;50.328;7.610;2023-03-17T12:01:23;3.33;;;1.80;;
10293;SDS011;5192;50.328;7.610;2023-03-17T12:04:08;3.73;;;1.90;;
10293;SDS011;5192;50.328;7.610;2023-03-17T12:07:00;4.80;;;1.73;;
10293;SDS011;5192;50.328;7.610;2023-03-17T12:12:46;3.83;;;2.00;;
10293;SDS011;5192;50.328;7.610;2023-03-17T12:15:29;4.07;;;2.63;;
10293;SDS011;5192;50.328;7.610;2023-03-17T12:18:22;4.73;;;2.13;;
10293;SDS011;5192;50.328;7.610;2023-03-17T12:21:37;2.93;;;2.27;;
10293;SDS011;5192;50.328;7.610;2023-03-17T12:24:18;4.60;;;2.20;;
10293;SDS011;5192;50.328;7.610;2023-03-17T12:32:44;3.47;;;2.03;;
10293;SDS011;5192;50.328;7.610;2023-03-17T12:35:30;3.57;;;2.03;;
10293;SDS011;5192;50.328;7.610;2023-03-17T12:38:29;5.47;;;2.43;;
10293;SDS011;5192;50.328;7.610;2023-03-17T12:41:26;4.40;;;2.30;;
10293;SDS011;5192;50.328;7.610;2023-03-17T12:56:16;4.63;;;2.20;;
10293;SDS011;5192;50.328;7.610;2023-03-17T12:58:50;4.33;;;2.10;;
10293;SDS011;5192;50.328;7.610;2023-03-17T13:04:28;3.47;;;2.23;;
10293;SDS011;5192;50.328;7.610;2023-03-17T13:07:17;3.43;;;1.90;;
10293;SDS011;5192;50.328;7.610;2023-03-17T13:13:10;2.30;;;2.10;;
10293;SDS011;5192;50.328;7.610;2023-03-17T13:15:58;4.87;;;2.37;;
10293;SDS011;5192;50.328;7.610;2023-03-17T13:21:16;2.87;;;2.17;;
10293;SDS011;5192;50.328;7.610;2023-03-17T13:23:53;4.10;;;2.20;;
10293;SDS011;5192;50.328;7.610;2023-03-17T13:35:15;4.43;;;2.20;;
10293;SDS011;5192;50.328;7.610;2023-03-17T13:38:00;3.80;;;2.07;;
10293;SDS011;5192;50.328;7.610;2023-03-17T13:52:05;2.77;;;1.90;;
10293;SDS011;5192;50.328;7.610;2023-03-17T14:00:35;2.43;;;1.90;;
10293;SDS011;5192;50.328;7.610;2023-03-17T14:03:04;3.57;;;2.10;;
10293;SDS011;5192;50.328;7.610;2023-03-17T14:05:36;3.70;;;2.13;;
10293;SDS011;5192;50.328;7.610;2023-03-17T14:08:16;3.07;;;1.97;;
10293;SDS011;5192;50.328;7.610;2023-03-17T14:10:56;3.53;;;2.27;;
10293;SDS011;5192;50.328;7.610;2023-03-17T14:16:21;3.47;;;2.20;;
10293;SDS011;5192;50.328;7.610;2023-03-17T14:19:24;2.43;;;1.93;;
10293;SDS011;5192;50.328;7.610;2023-03-17T14:22:16;3.43;;;1.93;;
10293;SDS011;5192;50.328;7.610;2023-03-17T14:24:49;3.00;;;2.00;;
10293;SDS011;5192;50.328;7.610;2023-03-17T14:27:26;3.27;;;2.00;;
10293;SDS011;5192;50.328;7.610;2023-03-17T14:30:03;3.30;;;1.93;;
10293;SDS011;5192;50.328;7.610;2023-03-17T14:32:49;2.43;;;1.90;;
10293;SDS011;5192;50.328;7.610;2023-03-17T14:35:40;5.10;;;2.33;;
10293;SDS011;5192;50.328;7.610;2023-03-17T14:38:18;2.97;;;2.17;;
10293;SDS011;5192;50.328;7.610;2023-03-17T14:41:06;2.33;;;2.03;;
10293;SDS011;5192;50.328;7.610;2023-03-17T14:44:01;3.53;;;2.50;;
10293;SDS011;5192;50.328;7.610;2023-03-17T14:46:34;2.90;;;2.20;;
10293;SDS011;5192;50.328;7.610;2023-03-17T14:51:48;5.33;;;2.43;;
10293;SDS011;5192;50.328;7.610;2023-03-17T14:54:19;2.67;;;2.40;;
10293;SDS011;5192;50.328;7.610;2023-03-17T14:57:07;3.93;;;2.57;;
10293;SDS011;5192;50.328;7.610;2023-03-17T14:59:42;2.90;;;2.27;;
10293;SDS011;5192;50.328;7.610;2023-03-17T15:14:03;4.13;;;2.63;;
10293;SDS011;5192;50.328;7.610;2023-03-17T15:16:38;4.80;;;3.00;;
10293;SDS011;5192;50.328;7.610;2023-03-17T15:21:55;4.70;;;2.90;;
10293;SDS011;5192;50.328;7.610;2023-03-17T15:24:42;4.67;;;2.90;;
10293;SDS011;5192;50.328;7.610;2023-03-17T15:29:55;5.00;;;3.07;;
10293;SDS011;5192;50.328;7.610;2023-03-17T15:32:24;3.80;;;3.10;;
10293;SDS011;5192;50.328;7.610;2023-03-17T15:34:53;5.60;;;3.33;;
10293;SDS011;5192;50.328;7.610;2023-03-17T15:40:11;7.23;;;3.30;;
10293;SDS011;5192;50.328;7.610;2023-03-17T15:42:49;4.60;;;3.10;;
10293;SDS011;5192;50.328;7.610;2023-03-17T15:45:18;5.27;;;3.67;;
10293;SDS011;5192;50.328;7.610;2023-03-17T15:47:44;6.93;;;3.07;;
10293;SDS011;5192;50.328;7.610;2023-03-17T15:52:59;5.07;;;3.30;;
10293;SDS011;5192;50.328;7.610;2023-03-17T15:55:27;4.63;;;3.33;;
10293;SDS011;5192;50.328;7.610;2023-03-17T15:57:54;4.47;;;3.40;;
10293;SDS011;5192;50.328;7.610;2023-03-17T16:00:23;4.50;;;3.30;;
10293;SDS011;5192;50.328;7.610;2023-03-17T16:02:55;5.57;;;3.03;;
10293;SDS011;5192;50.328;7.610;2023-03-17T16:05:34;5.83;;;3.43;;
10293;SDS011;5192;50.328;7.610;2023-03-17T16:08:02;4.03;;;3.30;;
10293;SDS011;5192;50.328;7.610;2023-03-17T16:10:30;5.10;;;2.80;;
10293;SDS011;5192;50.328;7.610;2023-03-17T16:12:58;3.83;;;3.30;;
10293;SDS011;5192;50.328;7.610;2023-03-17T16:15:28;6.53;;;3.70;;
10293;SDS011;5192;50.328;7.610;2023-03-17T16:17:57;3.90;;;3.30;;
10293;SDS011;5192;50.328;7.610;2023-03-17T16:23:19;5.80;;;3.47;;
10293;SDS011;5192;50.328;7.610;2023-03-17T16:25:50;3.63;;;3.30;;
10293;SDS011;5192;50.328;7.610;2023-03-17T16:28:23;6.20;;;3.63;;
10293;SDS011;5192;50.328;7.610;2023-03-17T16:30:55;6.80;;;3.57;;
10293;SDS011;5192;50.328;7.610;2023-03-17T16:33:58;3.70;;;3.13;;
10293;SDS011;5192;50.328;7.610;2023-03-17T16:36:19;6.17;;;3.60;;
10293;SDS011;5192;50.328;7.610;2023-03-17T16:38:46;5.47;;;3.47;;
10293;SDS011;5192;50.328;7.610;2023-03-17T16:41:19;5.77;;;3.90;;
10293;SDS011;5192;50.328;7.610;2023-03-17T16:43:50;5.53;;;3.43;;
10293;SDS011;5192;50.328;7.610;2023-03-17T16:46:20;6.27;;;3.37;;
10293;SDS011;5192;50.328;7.610;2023-03-17T16:48:48;5.93;;;3.43;;
10293;SDS011;5192;50.328;7.610;2023-03-17T16:51:17;6.20;;;3.43;;
10293;SDS011;5192;50.328;7.610;2023-03-17T16:53:45;6.33;;;3.90;;
10293;SDS011;5192;50.328;7.610;2023-03-17T16:56:13;5.73;;;4.67;;
10293;SDS011;5192;50.328;7.610;2023-03-17T16:58:43;6.13;;;4.43;;
10293;SDS011;5192;50.328;7.610;2023-03-17T17:01:12;7.60;;;4.73;;
10293;SDS011;5192;50.328;7.610;2023-03-17T17:03:47;5.30;;;4.57;;
10293;SDS011;5192;50.328;7.610;2023-03-17T17:06:14;6.57;;;4.87;;
10293;SDS011;5192;50.328;7.610;2023-03-17T17:08:43;6.13;;;4.33;;
10293;SDS011;5192;50.328;7.610;2023-03-17T17:11:11;6.43;;;4.63;;
10293;SDS011;5192;50.328;7.610;2023-03-17T17:13:39;6.73;;;4.83;;
10293;SDS011;5192;50.328;7.610;2023-03-17T17:16:06;5.43;;;4.67;;
10293;SDS011;5192;50.328;7.610;2023-03-17T17:18:55;5.10;;;4.03;;
10293;SDS011;5192;50.328;7.610;2023-03-17T17:21:25;6.53;;;4.33;;
10293;SDS011;5192;50.328;7.610;2023-03-17T17:23:53;4.70;;;4.00;;
10293;SDS011;5192;50.328;7.610;2023-03-17T17:26:20;6.90;;;4.63;;
10293;SDS011;5192;50.328;7.610;2023-03-17T17:28:46;8.37;;;4.80;;
10293;SDS011;5192;50.328;7.610;2023-03-17T17:31:13;5.73;;;4.63;;
10293;SDS011;5192;50.328;7.610;2023-03-17T17:33:39;7.67;;;5.10;;
10293;SDS011;5192;50.328;7.610;2023-03-17T17:36:09;7.20;;;4.40;;
10293;SDS011;5192;50.328;7.610;2023-03-17T17:38:44;8.37;;;4.40;;
10293;SDS011;5192;50.328;7.610;2023-03-17T17:41:10;7.33;;;4.17;;
10293;SDS011;5192;50.328;7.610;2023-03-17T17:43:42;4.17;;;3.73;;
10293;SDS011;5192;50.328;7.610;2023-03-17T17:46:16;6.13;;;3.53;;